Portada
METAR-TAF:

METAR-TAF

Aeroports :

Aeroport de Kangerlussuaq

Kangerlussuaq, Grenlàndia

latitud: 67-01N, longitud: 050-42W, altitud: 50 m

Observació

L'informe es va fer fa 26 minuts, a les 12:50 UTC
Vent 6 kt del Est/Sud-Est, variant entre Est/Nord-Est i Sud-Est
Temperatura 8°C
Humitat 31%
Pressió 1007 hPa
Visibilitat 10 km o més

METAR: BGSF 301250Z AUTO 11006KT 060V140 9999NDV NCD 08/M08 Q1007

Hora: 11:16 (13:16 UTC)

Pronòstic

L'informe es va fer fa 2 hores i 22 minuts, a les 10:54 UTC
Pronòstic vàlid del 30 a les 12 UTC al 30 a les 22 UTC
Vent 8 kt del Est
Visibilitat 10 km o més
Escasses núvols a una alçada de 20000 ft

TAF: BGSF 301054Z 3012/3022 09008KT 9999 FEW200

Observacions i pronòstics meteorològics de més de 4000 aeroports (METAR i TAF).

Les estacions disponibles són els punts grocs i vermells al mapa.

Posi el ratolí al punt desitjat per veure el nom de l'estació.

Feu clic per veure les observacions i els pronòstics meteorològics.

Per canviar el mapa: feu clic els botons verds amb una creu de color negre per apropar; al botó verd amb un guió per allunyar la imatge; o en les fletxes verdes per a mapes adjacents.


METAR-TAF: